createdAt,value
2022-10-01T00:02:08.200Z,8.27
2022-10-01T00:04:37.575Z,6.95
2022-10-01T00:07:09.730Z,9.30
2022-10-01T00:09:37.615Z,10.75
2022-10-01T00:12:05.236Z,8.85
2022-10-01T00:14:32.900Z,9.00
2022-10-01T00:17:00.569Z,7.72
2022-10-01T00:19:28.551Z,6.70
2022-10-01T00:21:56.136Z,7.32
2022-10-01T00:24:23.925Z,6.65
2022-10-01T00:26:51.500Z,7.22
2022-10-01T00:29:19.182Z,6.50
2022-10-01T00:31:46.930Z,7.10
2022-10-01T00:34:15.455Z,6.95
2022-10-01T00:36:43.206Z,8.25
2022-10-01T00:39:12.161Z,5.72
2022-10-01T00:41:39.909Z,8.35
2022-10-01T00:44:33.307Z,7.75
2022-10-01T00:47:29.479Z,4.93
2022-10-01T00:50:24.172Z,10.20
2022-10-01T00:53:00.641Z,9.32
2022-10-01T00:55:37.173Z,8.63
2022-10-01T00:58:05.674Z,6.75
2022-10-01T01:00:33.466Z,8.00
2022-10-01T01:03:01.058Z,4.93
2022-10-01T01:05:28.711Z,6.18
2022-10-01T01:07:58.374Z,6.18
2022-10-01T01:10:55.131Z,4.65
2022-10-01T01:14:02.863Z,6.53
2022-10-01T01:16:39.130Z,6.45
2022-10-01T01:19:58.940Z,8.35
2022-10-01T01:22:32.444Z,5.95
2022-10-01T01:25:20.321Z,6.10
2022-10-01T01:28:15.551Z,5.05
2022-10-01T01:30:44.400Z,6.03
2022-10-01T01:33:17.676Z,6.32
2022-10-01T01:35:55.505Z,4.70
2022-10-01T01:38:28.844Z,4.05
2022-10-01T01:41:00.966Z,3.67
2022-10-01T01:43:40.806Z,5.65
2022-10-01T01:46:11.250Z,4.53
2022-10-01T01:48:41.774Z,3.30
2022-10-01T01:51:18.892Z,3.55
2022-10-01T01:53:46.653Z,3.72
2022-10-01T01:56:14.205Z,4.80
2022-10-01T01:58:41.826Z,3.03
2022-10-01T02:01:40.648Z,3.13
2022-10-01T02:04:42.724Z,4.57
2022-10-01T02:07:19.085Z,2.90
2022-10-01T02:10:10.286Z,2.60
2022-10-01T02:13:20.241Z,2.83
2022-10-01T02:16:24.116Z,2.70
2022-10-01T02:19:13.195Z,2.20
2022-10-01T02:22:00.303Z,4.90
2022-10-01T02:24:52.641Z,4.40
2022-10-01T02:27:38.301Z,3.40
2022-10-01T02:30:09.962Z,3.00
2022-10-01T02:32:41.107Z,3.95
2022-10-01T02:35:12.746Z,2.78
2022-10-01T02:37:44.344Z,6.10
2022-10-01T02:40:16.597Z,4.10
2022-10-01T02:42:50.193Z,3.05
2022-10-01T02:45:24.865Z,4.95
2022-10-01T02:48:07.135Z,3.22
2022-10-01T02:50:49.992Z,3.40
2022-10-01T02:53:35.905Z,3.13
2022-10-01T02:56:05.540Z,4.00
2022-10-01T02:58:33.218Z,3.35
2022-10-01T03:01:00.847Z,3.80
2022-10-01T03:03:28.488Z,4.03
2022-10-01T03:05:56.094Z,4.88
2022-10-01T03:08:23.706Z,3.88
2022-10-01T03:10:51.267Z,4.55
2022-10-01T03:13:19.872Z,3.35
2022-10-01T03:15:47.520Z,3.72
2022-10-01T03:18:15.193Z,3.72
2022-10-01T03:20:42.905Z,8.35
2022-10-01T03:23:10.515Z,3.90
2022-10-01T03:25:38.315Z,7.07
2022-10-01T03:28:07.531Z,4.80
2022-10-01T03:30:35.471Z,4.85
2022-10-01T03:33:03.034Z,7.70
2022-10-01T03:35:32.054Z,5.90
2022-10-01T03:37:59.694Z,6.20
2022-10-01T03:40:27.317Z,6.20
2022-10-01T03:42:55.114Z,4.75
2022-10-01T03:45:22.753Z,4.32
2022-10-01T03:47:53.998Z,4.97
2022-10-01T03:50:22.018Z,6.63
2022-10-01T03:52:51.303Z,7.43
2022-10-01T03:55:19.343Z,8.15
2022-10-01T03:57:47.245Z,4.85
2022-10-01T04:00:15.139Z,6.05
2022-10-01T04:02:43.181Z,9.05
2022-10-01T04:05:12.347Z,5.20
2022-10-01T04:07:41.953Z,6.63
2022-10-01T04:10:10.058Z,9.82
2022-10-01T04:12:38.107Z,9.43
2022-10-01T04:15:06.165Z,9.00
2022-10-01T04:17:33.949Z,8.95
2022-10-01T04:20:01.905Z,7.63
2022-10-01T04:22:29.602Z,8.77
2022-10-01T04:24:57.228Z,6.97
2022-10-01T04:27:25.931Z,10.23
2022-10-01T04:29:53.561Z,7.03
2022-10-01T04:32:21.609Z,6.97
2022-10-01T04:34:52.833Z,8.05
2022-10-01T04:37:24.260Z,9.95
2022-10-01T04:39:53.224Z,6.60
2022-10-01T04:42:23.866Z,7.63
2022-10-01T04:44:51.482Z,9.18
2022-10-01T04:47:21.208Z,5.95
2022-10-01T04:49:51.299Z,7.07
2022-10-01T04:52:22.354Z,4.70
2022-10-01T04:54:53.092Z,5.15
2022-10-01T04:57:23.806Z,8.52
2022-10-01T04:59:54.156Z,5.80
2022-10-01T05:02:24.569Z,6.70
2022-10-01T05:04:52.351Z,6.95
2022-10-01T05:07:21.558Z,8.07
2022-10-01T05:09:51.794Z,8.18
2022-10-01T05:12:24.314Z,7.65
2022-10-01T05:14:53.851Z,8.32
2022-10-01T05:17:23.911Z,9.98
2022-10-01T05:19:51.790Z,11.07
2022-10-01T05:22:19.442Z,10.82
2022-10-01T05:24:49.449Z,13.30
2022-10-01T05:27:24.543Z,10.00
2022-10-01T05:29:54.878Z,8.77
2022-10-01T05:32:23.076Z,18.05
2022-10-01T05:34:53.624Z,14.50
2022-10-01T05:37:21.458Z,7.88
2022-10-01T05:39:49.063Z,8.85
2022-10-01T05:42:16.628Z,9.25
2022-10-01T05:44:46.353Z,10.57
2022-10-01T05:47:14.789Z,11.30
2022-10-01T05:49:44.464Z,10.77
2022-10-01T05:52:14.009Z,11.75
2022-10-01T05:54:41.840Z,15.10
2022-10-01T05:57:09.739Z,17.52
2022-10-01T05:59:37.473Z,14.63
2022-10-01T06:02:08.229Z,17.13
2022-10-01T06:04:40.934Z,12.70
2022-10-01T06:07:09.275Z,19.70
2022-10-01T06:09:36.870Z,15.10
2022-10-01T06:12:08.571Z,13.30
2022-10-01T06:14:36.236Z,21.92
2022-10-01T06:17:03.777Z,26.08
2022-10-01T06:19:31.470Z,17.52
2022-10-01T06:22:01.503Z,20.20
2022-10-01T06:24:30.183Z,18.88
2022-10-01T06:26:58.040Z,21.70
2022-10-01T06:29:25.882Z,18.85
2022-10-01T06:31:54.345Z,18.33
2022-10-01T06:34:22.002Z,16.83
2022-10-01T06:36:49.618Z,17.90
2022-10-01T06:39:17.202Z,29.58
2022-10-01T06:41:44.828Z,19.85
2022-10-01T06:44:15.829Z,21.25
2022-10-01T06:46:43.480Z,16.70
2022-10-01T06:49:11.061Z,14.68
2022-10-01T06:51:57.699Z,17.70
2022-10-01T06:54:27.367Z,16.35
2022-10-01T06:56:54.932Z,24.92
2022-10-01T06:59:22.520Z,20.38
2022-10-01T07:01:55.469Z,26.50
2022-10-01T07:04:23.902Z,15.65
2022-10-01T07:06:52.180Z,17.50
2022-10-01T07:09:19.864Z,15.13
2022-10-01T07:11:49.180Z,17.40
2022-10-01T07:14:16.787Z,19.67
2022-10-01T07:16:44.469Z,16.33
2022-10-01T07:19:12.207Z,15.20
2022-10-01T07:21:39.779Z,17.95
2022-10-01T07:24:07.671Z,14.73
2022-10-01T07:26:35.328Z,16.23
2022-10-01T07:29:02.951Z,11.38
2022-10-01T07:31:30.593Z,17.10
2022-10-01T07:33:58.766Z,18.05
2022-10-01T07:36:26.536Z,20.58
2022-10-01T07:38:54.177Z,13.05
2022-10-01T07:41:23.867Z,16.40
2022-10-01T07:43:52.782Z,23.30
2022-10-01T08:02:04.778Z,17.83
2022-10-01T08:29:03.977Z,19.13
2022-10-01T08:31:32.430Z,12.90
2022-10-01T08:34:00.305Z,15.95
2022-10-01T08:36:27.874Z,17.17
2022-10-01T08:38:55.494Z,28.75
2022-10-01T08:41:49.167Z,16.20
2022-10-01T08:44:28.082Z,18.88
2022-10-01T08:47:06.527Z,24.58
2022-10-01T08:49:48.637Z,14.88
2022-10-01T08:52:33.444Z,23.98
2022-10-01T08:55:05.636Z,17.88
2022-10-01T08:57:43.782Z,17.90
2022-10-01T09:00:15.881Z,11.07
2022-10-01T09:02:46.442Z,18.70
2022-10-01T09:05:25.478Z,16.05
2022-10-01T09:08:20.991Z,18.45
2022-10-01T09:11:05.884Z,11.68
2022-10-01T09:14:18.163Z,15.57
2022-10-01T09:17:12.876Z,16.45
2022-10-01T09:20:12.064Z,13.57
2022-10-01T09:23:20.167Z,12.65
2022-10-01T09:25:50.632Z,13.05
2022-10-01T09:28:23.902Z,13.27
2022-10-01T09:31:14.269Z,12.15
2022-10-01T09:33:51.012Z,19.65
2022-10-01T09:36:37.149Z,12.75
2022-10-01T09:41:38.811Z,17.38
2022-10-01T09:44:18.723Z,14.30
2022-10-01T09:46:47.361Z,12.73
2022-10-01T09:49:39.961Z,13.80
2022-10-01T09:52:18.765Z,20.67
2022-10-01T09:54:55.372Z,10.73
2022-10-01T09:57:37.381Z,14.32
2022-10-01T10:00:24.881Z,17.02
2022-10-01T10:02:54.852Z,11.98
2022-10-01T10:05:28.267Z,11.32
2022-10-01T10:08:10.310Z,13.43
2022-10-01T10:10:40.269Z,13.93
2022-10-01T10:13:14.747Z,13.82
2022-10-01T10:15:57.725Z,11.00
2022-10-01T10:18:33.996Z,16.15
2022-10-01T10:21:16.822Z,10.00
2022-10-01T10:23:49.408Z,11.10
2022-10-01T10:26:28.544Z,8.60
2022-10-01T10:28:59.290Z,11.70
2022-10-01T10:31:45.040Z,18.88
2022-10-01T10:34:22.704Z,9.23
2022-10-01T10:37:00.046Z,16.05
2022-10-01T10:39:41.097Z,8.68
2022-10-01T10:42:15.252Z,11.52
2022-10-01T10:44:46.453Z,9.45
2022-10-01T10:47:19.347Z,12.65
2022-10-01T10:49:58.679Z,14.35
2022-10-01T10:52:36.694Z,14.60
2022-10-01T10:55:31.134Z,16.27
2022-10-01T10:58:13.834Z,14.20
2022-10-01T11:00:50.021Z,11.10
2022-10-01T11:03:24.520Z,20.45
2022-10-01T11:05:56.228Z,14.55
2022-10-01T11:08:27.899Z,13.90
2022-10-01T11:11:17.278Z,16.80
2022-10-01T11:14:23.608Z,10.75
2022-10-01T11:17:15.796Z,15.95
2022-10-01T11:20:27.114Z,8.82
2022-10-01T11:23:16.681Z,9.20
2022-10-01T11:26:10.355Z,16.60
2022-10-01T11:29:00.526Z,7.68
2022-10-01T11:31:40.364Z,14.32
2022-10-01T11:34:37.964Z,10.55
2022-10-01T11:37:21.184Z,12.10
2022-10-01T11:39:58.158Z,20.98
2022-10-01T11:42:35.572Z,12.25
2022-10-01T11:45:21.459Z,10.10
2022-10-01T11:48:00.175Z,11.43
2022-10-01T11:50:39.215Z,9.00
2022-10-01T11:53:33.335Z,11.63
2022-10-01T11:56:26.986Z,13.45
2022-10-01T11:59:04.406Z,12.57
2022-10-01T12:01:45.064Z,15.05
2022-10-01T12:04:25.437Z,14.27
2022-10-01T12:07:26.828Z,12.98
2022-10-01T12:10:28.755Z,10.95
2022-10-01T12:13:16.507Z,10.70
2022-10-01T12:16:17.144Z,12.68
2022-10-01T12:18:55.772Z,9.77
2022-10-01T12:21:43.598Z,11.50
2022-10-01T12:24:19.157Z,14.73
2022-10-01T12:27:26.578Z,13.30
2022-10-01T12:30:05.603Z,14.57
2022-10-01T12:33:07.546Z,20.08
2022-10-01T12:36:14.706Z,12.10
2022-10-01T12:42:00.844Z,18.35
2022-10-01T12:45:12.999Z,17.73
2022-10-01T12:48:06.795Z,11.27
2022-10-01T12:50:54.209Z,10.88
2022-10-01T12:54:01.135Z,9.98
2022-10-01T12:56:40.713Z,15.05
2022-10-01T12:59:19.221Z,16.88
2022-10-01T13:02:12.583Z,11.32
2022-10-01T13:05:20.999Z,7.32
2022-10-01T13:08:16.644Z,11.90
2022-10-01T13:10:59.976Z,15.85
2022-10-01T13:13:33.483Z,11.18
2022-10-01T13:16:04.139Z,9.63
2022-10-01T13:19:14.457Z,11.05
2022-10-01T13:22:35.222Z,16.85
2022-10-01T13:25:29.273Z,12.57
2022-10-01T13:28:16.906Z,14.40
2022-10-01T13:31:11.012Z,11.07
2022-10-01T13:33:38.708Z,17.05
2022-10-01T13:36:08.507Z,12.38
2022-10-01T13:38:44.281Z,12.38
2022-10-01T13:44:11.570Z,13.77
2022-10-01T13:47:07.119Z,11.52
2022-10-01T13:49:36.792Z,10.05
2022-10-01T13:52:06.067Z,16.40
2022-10-01T13:54:50.463Z,14.70
2022-10-01T13:57:38.739Z,8.52
2022-10-01T14:00:23.499Z,9.07
2022-10-01T14:03:57.378Z,10.38
2022-10-01T14:06:42.378Z,12.75
2022-10-01T14:09:18.282Z,11.40
2022-10-01T14:12:13.154Z,11.75
2022-10-01T14:15:47.573Z,7.25
2022-10-01T14:18:19.607Z,10.35
2022-10-01T14:21:08.961Z,12.82
2022-10-01T14:23:54.704Z,12.63
2022-10-01T14:26:43.624Z,13.77
2022-10-01T14:29:14.322Z,10.50
2022-10-01T14:32:11.049Z,7.20
2022-10-01T14:35:20.952Z,13.10
2022-10-01T14:37:50.218Z,15.63
2022-10-01T14:40:22.148Z,15.15
2022-10-01T14:43:18.862Z,15.20
2022-10-01T14:45:52.021Z,9.63
2022-10-01T14:48:19.798Z,15.15
2022-10-01T14:50:52.930Z,9.00
2022-10-01T14:53:24.743Z,7.57
2022-10-01T14:56:00.653Z,9.65
2022-10-01T14:58:36.335Z,12.77
2022-10-01T15:03:39.101Z,10.88
2022-10-01T15:06:17.108Z,9.52
2022-10-01T15:08:48.205Z,14.45
2022-10-01T15:11:26.945Z,10.13
2022-10-01T15:14:08.287Z,11.55
2022-10-01T15:16:36.991Z,14.40
2022-10-01T15:19:13.872Z,8.15
2022-10-01T15:21:54.254Z,7.07
2022-10-01T15:24:26.001Z,14.68
2022-10-01T15:26:56.891Z,15.38
2022-10-01T15:29:24.910Z,17.52
2022-10-01T15:31:53.325Z,10.02
2022-10-01T15:34:24.381Z,9.70
2022-10-01T15:36:53.734Z,10.63
2022-10-01T15:39:36.276Z,9.10
2022-10-01T15:42:09.722Z,10.38
2022-10-01T15:44:38.717Z,11.93
2022-10-01T15:47:35.577Z,15.52
2022-10-01T15:50:09.021Z,10.48
2022-10-01T15:52:54.848Z,16.17
2022-10-01T15:55:46.131Z,14.30
2022-10-01T15:58:24.021Z,12.93
2022-10-01T16:01:12.401Z,12.45
2022-10-01T16:04:06.954Z,12.15
2022-10-01T16:06:37.165Z,7.50
2022-10-01T16:09:18.944Z,9.68
2022-10-01T16:11:56.783Z,16.63
2022-10-01T16:14:44.013Z,14.13
2022-10-01T16:17:17.764Z,7.25
2022-10-01T16:19:50.799Z,10.73
2022-10-01T16:22:32.386Z,9.90
2022-10-01T16:25:09.162Z,9.02
2022-10-01T16:27:49.633Z,12.40
2022-10-01T16:30:29.617Z,12.25
2022-10-01T16:33:04.507Z,13.32
2022-10-01T16:35:35.926Z,13.53
2022-10-01T16:38:08.452Z,11.55
2022-10-01T16:40:49.252Z,10.43
2022-10-01T16:43:21.558Z,11.70
2022-10-01T16:45:49.185Z,11.27
2022-10-01T16:48:22.351Z,11.27
2022-10-01T16:50:52.073Z,14.15
2022-10-01T16:53:20.222Z,12.32
2022-10-01T16:55:48.156Z,10.75
2022-10-01T16:58:16.010Z,15.63
2022-10-01T17:00:43.710Z,12.82
2022-10-01T17:03:22.204Z,14.15
2022-10-01T17:05:50.055Z,10.02
2022-10-01T17:08:17.729Z,7.03
2022-10-01T17:10:57.745Z,12.77
2022-10-01T17:13:27.495Z,13.77
2022-10-01T17:15:55.353Z,15.50
2022-10-01T17:18:23.322Z,9.30
2022-10-01T17:20:51.031Z,9.52
2022-10-01T17:23:22.453Z,14.25
2022-10-01T17:25:50.460Z,14.38
2022-10-01T17:28:21.684Z,11.43
2022-10-01T17:30:50.052Z,14.45
2022-10-01T17:33:19.650Z,15.88
2022-10-01T17:35:52.075Z,20.58
2022-10-01T17:38:21.070Z,12.15
2022-10-01T17:40:55.420Z,18.52
2022-10-01T17:43:23.966Z,17.55
2022-10-01T17:46:00.784Z,16.17
2022-10-01T17:48:29.257Z,12.77
2022-10-01T17:51:09.127Z,14.38
2022-10-01T17:53:42.194Z,15.98
2022-10-01T17:56:15.546Z,16.55
2022-10-01T17:58:45.607Z,19.00
2022-10-01T18:01:19.569Z,15.38
2022-10-01T18:03:48.265Z,16.45
2022-10-01T18:06:16.180Z,15.98
2022-10-01T18:08:55.104Z,18.35
2022-10-01T18:11:26.764Z,20.35
2022-10-01T18:13:54.538Z,19.35
2022-10-01T18:16:22.945Z,21.17
2022-10-01T18:21:48.353Z,16.50
2022-10-01T18:24:16.717Z,10.82
2022-10-01T18:26:45.807Z,15.55
2022-10-01T18:29:31.223Z,17.92
2022-10-01T18:32:13.146Z,13.85
2022-10-01T18:34:49.200Z,17.02
2022-10-01T18:37:47.906Z,16.38
2022-10-01T18:40:43.332Z,21.13
2022-10-01T18:43:20.692Z,19.70
2022-10-01T18:46:05.220Z,24.88
2022-10-01T18:49:10.157Z,20.10
2022-10-01T18:52:07.999Z,13.20
2022-10-01T18:55:21.360Z,18.88
2022-10-01T18:58:01.329Z,15.43
2022-10-01T19:00:56.200Z,21.67
2022-10-01T19:03:54.023Z,19.98
2022-10-01T19:07:00.876Z,23.95
2022-10-01T19:10:14.343Z,23.40
2022-10-01T19:13:13.862Z,20.63
2022-10-01T19:16:18.097Z,18.55
2022-10-01T19:19:36.482Z,21.25
2022-10-01T19:22:20.939Z,20.50
2022-10-01T19:25:33.336Z,19.88
2022-10-01T19:28:42.593Z,18.17
2022-10-01T19:31:29.889Z,20.10
2022-10-01T19:34:23.086Z,16.05
2022-10-01T19:37:00.916Z,22.90
2022-10-01T19:39:35.300Z,19.13
2022-10-01T19:42:31.155Z,21.02
2022-10-01T19:45:04.460Z,24.77
2022-10-01T19:47:42.351Z,19.77
2022-10-01T19:50:24.994Z,21.63
2022-10-01T19:52:57.625Z,15.73
2022-10-01T19:55:32.926Z,12.60
2022-10-01T19:58:12.092Z,16.13
2022-10-01T20:00:40.162Z,26.58
2022-10-01T20:03:19.333Z,14.90
2022-10-01T20:06:32.476Z,20.85
2022-10-01T20:09:15.886Z,21.80
2022-10-01T20:12:06.654Z,20.60
2022-10-01T20:15:11.624Z,26.58
2022-10-01T20:18:16.076Z,20.10
2022-10-01T20:21:07.899Z,19.92
2022-10-01T20:23:56.674Z,22.45
2022-10-01T20:26:40.091Z,22.13
2022-10-01T20:29:15.345Z,23.00
2022-10-01T20:32:30.889Z,19.95
2022-10-01T20:35:11.246Z,20.02
2022-10-01T20:38:07.426Z,16.00
2022-10-01T20:40:49.628Z,26.40
2022-10-01T20:43:28.838Z,21.83
2022-10-01T20:45:59.907Z,28.55
2022-10-01T20:48:37.266Z,22.92
2022-10-01T20:51:10.664Z,21.33
2022-10-01T20:53:50.190Z,19.27
2022-10-01T20:56:30.761Z,13.70
2022-10-01T20:59:07.566Z,23.10
2022-10-01T21:01:46.213Z,19.73
2022-10-01T21:04:21.330Z,15.00
2022-10-01T21:07:04.216Z,21.52
2022-10-01T21:09:42.194Z,19.75
2022-10-01T21:12:26.578Z,26.08
2022-10-01T21:14:56.796Z,19.15
2022-10-01T21:17:36.409Z,18.17
2022-10-01T21:20:43.959Z,23.83
2022-10-01T21:23:32.592Z,18.60
2022-10-01T21:26:14.999Z,23.83
2022-10-01T21:29:15.762Z,21.85
2022-10-01T21:32:02.075Z,18.92
2022-10-01T21:34:40.672Z,26.63
2022-10-01T21:37:17.177Z,19.23
2022-10-01T21:39:57.059Z,18.77
2022-10-01T21:42:43.852Z,27.90
2022-10-01T21:45:39.429Z,22.15
2022-10-01T21:48:32.528Z,23.63
2022-10-01T21:51:07.196Z,24.13
2022-10-01T21:53:51.101Z,22.17
2022-10-01T21:56:43.774Z,18.40
2022-10-01T21:59:34.871Z,24.83
2022-10-01T22:02:37.714Z,21.63
2022-10-01T22:05:34.313Z,20.05
2022-10-01T22:11:12.609Z,20.15
2022-10-01T22:14:14.127Z,21.38
2022-10-01T22:16:51.631Z,23.08
2022-10-01T22:19:45.014Z,18.83
2022-10-01T22:22:21.293Z,17.25
2022-10-01T22:24:53.297Z,23.10
2022-10-01T22:27:51.858Z,19.48
2022-10-01T22:30:23.522Z,22.52
2022-10-01T22:33:08.830Z,17.05
2022-10-01T22:35:51.867Z,25.50
2022-10-01T22:38:30.988Z,27.40
2022-10-01T22:41:13.921Z,22.98
2022-10-01T22:43:43.026Z,28.25
2022-10-01T22:46:32.529Z,23.27
2022-10-01T22:49:25.851Z,26.23
2022-10-01T22:52:46.093Z,26.77
2022-10-01T22:55:29.593Z,19.42
2022-10-01T22:58:09.527Z,21.63
2022-10-01T23:00:56.194Z,25.50
2022-10-01T23:04:08.007Z,31.67
2022-10-01T23:06:46.487Z,23.30
2022-10-01T23:09:25.531Z,26.17
2022-10-01T23:12:11.343Z,27.30
2022-10-01T23:14:50.116Z,21.25
2022-10-01T23:17:35.329Z,18.00
2022-10-01T23:20:27.750Z,26.73
2022-10-01T23:23:22.251Z,33.20
2022-10-01T23:26:05.389Z,29.35
2022-10-01T23:29:02.921Z,22.08
2022-10-01T23:31:36.934Z,21.88
2022-10-01T23:34:49.086Z,24.40
2022-10-01T23:38:03.542Z,27.98
2022-10-01T23:40:45.335Z,29.80
2022-10-01T23:43:36.618Z,30.55
2022-10-01T23:46:22.801Z,24.65
2022-10-01T23:51:41.806Z,27.42
2022-10-01T23:54:27.656Z,21.58
2022-10-01T23:57:02.959Z,23.23
2022-10-01T23:59:47.420Z,26.50
